createdAt,value
2023-02-01T00:02:06.043Z,3.70
2023-02-01T00:05:03.507Z,3.70
2023-02-01T00:08:01.139Z,3.72
2023-02-01T00:10:58.773Z,3.80
2023-02-01T00:13:56.233Z,3.80
2023-02-01T00:16:53.950Z,3.80
2023-02-01T00:19:51.380Z,3.80
2023-02-01T00:22:49.077Z,3.80
2023-02-01T00:25:46.545Z,3.80
2023-02-01T00:28:44.301Z,3.88
2023-02-01T00:31:42.115Z,3.90
2023-02-01T00:34:39.572Z,3.90
2023-02-01T00:37:37.320Z,3.90
2023-02-01T00:40:34.752Z,3.90
2023-02-01T00:43:32.552Z,4.00
2023-02-01T00:46:30.032Z,4.00
2023-02-01T00:49:27.952Z,4.06
2023-02-01T00:52:25.426Z,4.10
2023-02-01T00:55:23.172Z,4.12
2023-02-01T00:58:20.951Z,4.20
2023-02-01T01:01:18.419Z,4.20
2023-02-01T01:04:16.169Z,4.20
2023-02-01T01:07:13.611Z,4.20
2023-02-01T01:10:11.297Z,4.20
2023-02-01T01:13:08.715Z,4.20
2023-02-01T01:16:06.450Z,4.20
2023-02-01T01:19:03.928Z,4.20
2023-02-01T01:22:01.653Z,4.18
2023-02-01T01:24:59.333Z,4.14
2023-02-01T01:27:56.790Z,4.18
2023-02-01T01:30:54.548Z,4.20
2023-02-01T01:33:52.007Z,4.20
2023-02-01T01:36:49.783Z,4.20
2023-02-01T01:39:47.545Z,4.20
2023-02-01T01:42:44.986Z,4.20
2023-02-01T01:45:42.770Z,4.20
2023-02-01T01:48:40.207Z,4.20
2023-02-01T01:51:38.609Z,4.20
2023-02-01T01:54:36.050Z,4.20
2023-02-01T01:57:33.835Z,4.20
2023-02-01T02:00:31.580Z,4.12
2023-02-01T02:03:29.064Z,4.10
2023-02-01T02:06:26.837Z,4.10
2023-02-01T02:09:24.252Z,4.20
2023-02-01T02:12:21.840Z,4.20
2023-02-01T02:15:19.629Z,4.20
2023-02-01T02:18:17.072Z,4.30
2023-02-01T02:21:14.815Z,4.30
2023-02-01T02:24:12.274Z,4.30
2023-02-01T02:27:24.205Z,4.30
2023-02-01T02:30:21.918Z,4.32
2023-02-01T02:33:19.941Z,4.36
2023-02-01T02:36:17.707Z,4.40
2023-02-01T02:39:15.133Z,4.40
2023-02-01T02:42:30.865Z,4.40
2023-02-01T02:45:51.161Z,4.40
2023-02-01T02:48:48.925Z,4.36
2023-02-01T02:52:04.100Z,4.30
2023-02-01T02:55:01.545Z,4.28
2023-02-01T02:58:17.048Z,4.20
2023-02-01T03:01:32.524Z,4.16
2023-02-01T03:04:29.998Z,4.10
2023-02-01T03:07:27.694Z,4.10
2023-02-01T03:10:25.236Z,4.10
2023-02-01T03:13:23.070Z,4.10
2023-02-01T03:16:22.651Z,4.08
2023-02-01T03:19:20.349Z,4.10
2023-02-01T03:22:18.095Z,4.10
2023-02-01T03:25:15.897Z,4.10
2023-02-01T03:28:13.605Z,4.10
2023-02-01T03:31:11.088Z,4.10
2023-02-01T03:34:08.873Z,4.20
2023-02-01T03:37:06.315Z,4.20
2023-02-01T03:40:04.116Z,4.20
2023-02-01T03:43:01.586Z,4.20
2023-02-01T03:45:59.379Z,4.20
2023-02-01T03:48:57.211Z,4.20
2023-02-01T03:51:54.738Z,4.20
2023-02-01T03:54:52.541Z,4.20
2023-02-01T03:57:49.986Z,4.20
2023-02-01T04:00:47.675Z,4.20
2023-02-01T04:03:45.421Z,4.24
2023-02-01T04:06:42.855Z,4.28
2023-02-01T04:09:40.559Z,4.30
2023-02-01T04:12:37.990Z,4.30
2023-02-01T04:15:35.964Z,4.30
2023-02-01T04:18:33.379Z,4.32
2023-02-01T04:21:31.097Z,4.40
2023-02-01T04:24:28.868Z,4.40
2023-02-01T04:27:26.300Z,4.40
2023-02-01T04:30:25.542Z,4.42
2023-02-01T04:33:23.181Z,4.50
2023-02-01T04:36:23.147Z,4.50
2023-02-01T04:39:20.578Z,4.60
2023-02-01T04:42:18.349Z,4.60
2023-02-01T04:45:15.778Z,4.60
2023-02-01T04:48:13.567Z,4.70
2023-02-01T04:51:11.646Z,4.70
2023-02-01T04:54:09.072Z,4.70
2023-02-01T04:57:06.741Z,4.70
2023-02-01T05:00:04.334Z,4.70
2023-02-01T05:03:02.090Z,4.70
2023-02-01T05:06:00.394Z,4.70
2023-02-01T05:08:58.135Z,4.80
2023-02-01T05:12:13.768Z,4.80
2023-02-01T05:15:11.190Z,4.80
2023-02-01T05:18:08.960Z,4.84
2023-02-01T05:21:06.401Z,4.90
2023-02-01T05:24:14.315Z,4.90
2023-02-01T05:27:11.761Z,4.90
2023-02-01T05:30:09.648Z,4.90
2023-02-01T05:33:07.320Z,4.90
2023-02-01T05:36:06.824Z,4.90
2023-02-01T05:39:04.741Z,4.98
2023-02-01T05:42:02.177Z,4.92
2023-02-01T05:44:59.837Z,4.90
2023-02-01T05:47:57.279Z,4.90
2023-02-01T05:50:55.048Z,4.90
2023-02-01T05:53:52.784Z,4.90
2023-02-01T05:56:50.227Z,4.92
2023-02-01T05:59:48.847Z,4.90
2023-02-01T06:02:46.327Z,4.90
2023-02-01T06:05:44.084Z,4.94
2023-02-01T06:08:42.118Z,4.94
2023-02-01T06:11:39.908Z,5.00
2023-02-01T06:14:38.173Z,5.00
2023-02-01T06:17:35.890Z,5.00
2023-02-01T06:20:33.320Z,5.00
2023-02-01T06:23:31.089Z,5.10
2023-02-01T06:26:30.641Z,5.10
2023-02-01T06:29:28.779Z,5.10
2023-02-01T06:32:26.540Z,5.10
2023-02-01T06:35:23.993Z,5.10
2023-02-01T06:38:21.895Z,5.20
2023-02-01T06:41:21.607Z,5.20
2023-02-01T06:44:19.199Z,5.20
2023-02-01T06:47:16.627Z,5.20
2023-02-01T06:50:14.362Z,5.22
2023-02-01T06:53:12.035Z,5.24
2023-02-01T06:56:09.460Z,5.30
2023-02-01T06:59:07.172Z,5.30
2023-02-01T07:02:04.660Z,5.30
2023-02-01T07:05:02.604Z,5.30
2023-02-01T07:08:00.036Z,5.30
2023-02-01T07:10:57.872Z,5.30
2023-02-01T07:13:55.317Z,5.30
2023-02-01T07:16:53.223Z,5.26
2023-02-01T07:19:50.911Z,5.22
2023-02-01T07:22:48.343Z,5.30
2023-02-01T07:25:46.112Z,5.30
2023-02-01T07:28:43.533Z,5.30
2023-02-01T07:31:41.293Z,5.30
2023-02-01T07:34:38.728Z,5.30
2023-02-01T07:37:36.493Z,5.30
2023-02-01T07:40:34.013Z,5.32
2023-02-01T07:43:31.833Z,5.40
2023-02-01T07:46:29.285Z,5.40
2023-02-01T07:49:27.005Z,5.40
2023-02-01T07:52:24.457Z,5.40
2023-02-01T07:55:22.092Z,5.50
2023-02-01T07:58:19.530Z,5.50
2023-02-01T08:01:24.235Z,5.58
2023-02-01T08:04:22.174Z,5.60
2023-02-01T08:07:19.629Z,5.62
2023-02-01T08:10:17.300Z,5.70
2023-02-01T08:13:14.784Z,5.70
2023-02-01T08:16:12.707Z,5.70
2023-02-01T08:19:10.169Z,5.70
2023-02-01T08:22:08.632Z,5.80
2023-02-01T08:25:06.079Z,5.80
2023-02-01T08:28:03.856Z,5.90
2023-02-01T08:34:17.003Z,6.10
2023-02-01T08:37:14.871Z,6.22
2023-02-01T08:40:12.357Z,6.30
2023-02-01T08:43:10.274Z,6.42
2023-02-01T08:46:07.748Z,6.50
2023-02-01T08:49:05.739Z,6.50
2023-02-01T08:52:07.184Z,6.50
2023-02-01T08:55:10.267Z,6.50
2023-02-01T08:58:07.691Z,6.50
2023-02-01T09:01:05.737Z,6.48
2023-02-01T09:04:03.220Z,6.40
2023-02-01T09:07:01.160Z,6.40
2023-02-01T09:10:01.964Z,6.40
2023-02-01T09:13:01.918Z,6.30
2023-02-01T09:16:00.846Z,6.30
2023-02-01T09:19:22.129Z,6.30
2023-02-01T09:22:16.598Z,6.30
2023-02-01T09:25:14.516Z,6.30
2023-02-01T09:28:11.986Z,6.40
2023-02-01T09:31:10.783Z,6.40
2023-02-01T09:34:08.280Z,6.40
2023-02-01T09:37:06.231Z,6.40
2023-02-01T09:40:05.298Z,6.40
2023-02-01T09:43:03.233Z,6.40
2023-02-01T09:46:00.700Z,6.40
2023-02-01T09:48:59.788Z,6.40
2023-02-01T09:51:57.223Z,6.40
2023-02-01T09:54:55.409Z,6.32
2023-02-01T09:57:52.892Z,6.32
2023-02-01T10:00:50.754Z,6.30
2023-02-01T10:03:48.201Z,6.30
2023-02-01T10:06:46.103Z,6.30
2023-02-01T10:09:43.532Z,6.20
2023-02-01T10:12:41.389Z,6.20
2023-02-01T10:15:38.919Z,6.24
2023-02-01T10:18:36.945Z,6.40
2023-02-01T10:21:40.004Z,6.60
2023-02-01T10:24:38.013Z,6.80
2023-02-01T10:27:35.446Z,6.88
2023-02-01T10:30:35.400Z,7.00
2023-02-01T10:33:33.120Z,7.18
2023-02-01T10:36:31.517Z,7.32
2023-02-01T10:39:28.964Z,7.40
2023-02-01T10:42:26.880Z,7.40
2023-02-01T10:45:24.349Z,7.40
2023-02-01T10:48:22.206Z,7.44
2023-02-01T10:51:19.651Z,7.40
2023-02-01T10:54:17.734Z,7.46
2023-02-01T10:57:15.151Z,7.48
2023-02-01T11:00:13.161Z,7.30
2023-02-01T11:03:10.616Z,7.20
2023-02-01T11:06:08.446Z,7.06
2023-02-01T11:09:06.102Z,6.90
2023-02-01T11:12:04.207Z,6.90
2023-02-01T11:15:01.657Z,6.90
2023-02-01T11:18:00.793Z,6.90
2023-02-01T11:20:58.226Z,6.90
2023-02-01T11:23:56.135Z,6.80
2023-02-01T11:26:54.060Z,6.70
2023-02-01T11:29:52.079Z,6.60
2023-02-01T11:32:49.519Z,6.60
2023-02-01T11:35:47.436Z,6.50
2023-02-01T11:38:44.868Z,6.38
2023-02-01T11:41:42.740Z,6.20
2023-02-01T11:44:40.183Z,6.12
2023-02-01T11:47:38.045Z,6.10
2023-02-01T11:50:35.507Z,5.90
2023-02-01T11:53:33.513Z,5.80
2023-02-01T11:56:31.472Z,5.72
2023-02-01T11:59:31.376Z,5.80
2023-02-01T12:02:28.843Z,5.90
2023-02-01T12:05:27.538Z,6.10
2023-02-01T12:08:24.993Z,6.12
2023-02-01T12:11:22.964Z,6.20
2023-02-01T12:14:20.437Z,6.10
2023-02-01T12:17:18.314Z,6.10
2023-02-01T12:20:15.776Z,6.10
2023-02-01T12:23:13.603Z,6.20
2023-02-01T12:26:11.529Z,6.20
2023-02-01T12:29:09.609Z,6.30
2023-02-01T12:32:07.437Z,6.30
2023-02-01T12:35:04.898Z,6.40
2023-02-01T12:38:02.695Z,6.42
2023-02-01T12:41:00.180Z,6.70
2023-02-01T12:43:58.175Z,7.00
2023-02-01T12:46:55.605Z,7.20
2023-02-01T12:49:53.432Z,7.26
2023-02-01T12:52:51.383Z,7.20
2023-02-01T12:55:51.782Z,7.30
2023-02-01T12:58:49.662Z,7.30
2023-02-01T13:01:48.373Z,7.30
2023-02-01T13:04:46.452Z,7.16
2023-02-01T13:07:43.915Z,7.00
2023-02-01T13:10:43.027Z,6.90
2023-02-01T13:13:41.167Z,6.80
2023-02-01T13:16:38.617Z,6.80
2023-02-01T13:19:36.612Z,6.80
2023-02-01T13:22:34.080Z,6.70
2023-02-01T13:25:31.931Z,6.68
2023-02-01T13:28:29.690Z,6.60
2023-02-01T13:31:27.774Z,6.60
2023-02-01T13:34:25.288Z,6.60
2023-02-01T13:37:23.205Z,6.50
2023-02-01T13:40:20.650Z,6.50
2023-02-01T13:43:18.554Z,6.44
2023-02-01T13:46:17.207Z,6.40
2023-02-01T13:49:15.106Z,6.40
2023-02-01T13:52:12.546Z,6.32
2023-02-01T13:55:10.419Z,6.30
2023-02-01T13:58:07.846Z,6.30
2023-02-01T14:01:05.667Z,6.20
2023-02-01T14:04:03.559Z,6.10
2023-02-01T14:07:01.448Z,6.10
2023-02-01T14:09:58.900Z,6.00
2023-02-01T14:12:56.777Z,5.90
2023-02-01T14:15:54.380Z,5.80
2023-02-01T14:18:52.577Z,5.70
2023-02-01T14:21:50.426Z,5.66
2023-02-01T14:24:47.852Z,5.60
2023-02-01T14:27:45.777Z,5.50
2023-02-01T14:30:43.293Z,5.50
2023-02-01T14:33:41.310Z,5.50
2023-02-01T14:36:43.445Z,5.60
2023-02-01T14:39:41.555Z,5.60
2023-02-01T14:42:39.426Z,5.60
2023-02-01T14:45:37.510Z,5.60
2023-02-01T14:48:35.044Z,5.50
2023-02-01T14:51:33.139Z,5.50
2023-02-01T14:54:30.595Z,5.48
2023-02-01T14:57:28.607Z,5.40
2023-02-01T15:00:26.076Z,5.30
2023-02-01T15:03:23.934Z,5.30
2023-02-01T15:06:21.391Z,5.30
2023-02-01T15:09:19.207Z,5.30
2023-02-01T15:12:16.825Z,5.20
2023-02-01T15:15:14.853Z,5.20
2023-02-01T15:18:12.288Z,5.20
2023-02-01T15:21:28.242Z,5.20
2023-02-01T15:24:27.675Z,5.20
2023-02-01T15:27:25.587Z,5.20
2023-02-01T15:30:23.854Z,5.20
2023-02-01T15:33:21.966Z,5.10
2023-02-01T15:36:19.455Z,5.10
2023-02-01T15:39:19.944Z,5.00
2023-02-01T15:42:19.781Z,5.02
2023-02-01T15:45:17.725Z,5.10
2023-02-01T15:48:15.180Z,5.10
2023-02-01T15:51:13.062Z,5.10
2023-02-01T15:54:10.731Z,5.20
2023-02-01T15:57:09.910Z,5.14
2023-02-01T16:00:08.582Z,5.10
2023-02-01T16:03:06.641Z,5.10
2023-02-01T16:06:04.280Z,5.08
2023-02-01T16:09:02.300Z,5.00
2023-02-01T16:11:59.762Z,5.00
2023-02-01T16:14:57.647Z,5.00
2023-02-01T16:17:55.513Z,5.00
2023-02-01T16:20:52.961Z,5.00
2023-02-01T16:23:51.043Z,5.00
2023-02-01T16:26:48.612Z,5.08
2023-02-01T16:29:46.573Z,5.10
2023-02-01T16:32:44.685Z,5.10
2023-02-01T16:35:42.682Z,5.20
2023-02-01T16:38:40.234Z,5.20
2023-02-01T16:41:38.457Z,5.20
2023-02-01T16:44:36.644Z,5.20
2023-02-01T16:47:37.165Z,5.20
2023-02-01T16:50:35.062Z,5.20
2023-02-01T16:53:41.674Z,5.20
2023-02-01T16:56:46.330Z,5.20
2023-02-01T16:59:45.588Z,5.20
2023-02-01T17:02:43.097Z,5.20
2023-02-01T17:05:41.295Z,5.20
2023-02-01T17:08:39.209Z,5.20
2023-02-01T17:11:38.885Z,5.20
2023-02-01T17:14:38.454Z,5.20
2023-02-01T17:17:38.769Z,5.20
2023-02-01T17:20:38.603Z,5.20
2023-02-01T17:23:37.149Z,5.20
2023-02-01T17:26:36.846Z,5.20
2023-02-01T17:29:36.248Z,5.20
2023-02-01T17:32:34.419Z,5.20
2023-02-01T17:35:33.830Z,5.20
2023-02-01T17:38:32.132Z,5.18
2023-02-01T17:41:30.570Z,5.10
2023-02-01T17:44:28.610Z,5.10
2023-02-01T17:47:27.445Z,5.10
2023-02-01T17:50:29.622Z,5.00
2023-02-01T17:53:27.815Z,5.00
2023-02-01T17:56:27.461Z,5.00
2023-02-01T17:59:25.589Z,5.00
2023-02-01T18:02:23.789Z,5.00
2023-02-01T18:05:22.370Z,5.00
2023-02-01T18:08:22.370Z,5.00
2023-02-01T18:11:20.538Z,5.00
2023-02-01T18:14:18.692Z,5.00
2023-02-01T18:17:17.300Z,5.00
2023-02-01T18:20:16.447Z,5.00
2023-02-01T18:23:16.407Z,5.00
2023-02-01T18:26:15.126Z,5.00
2023-02-01T18:29:13.981Z,5.00
2023-02-01T18:32:12.059Z,5.02
2023-02-01T18:35:13.704Z,5.04
2023-02-01T18:38:12.471Z,5.02
2023-02-01T18:41:11.128Z,5.04
2023-02-01T18:44:09.853Z,5.10
2023-02-01T18:47:09.464Z,5.10
2023-02-01T18:50:08.888Z,5.10
2023-02-01T18:53:08.010Z,5.14
2023-02-01T18:56:07.341Z,5.20
2023-02-01T18:59:06.318Z,5.20
2023-02-01T19:02:05.581Z,5.20
2023-02-01T19:05:04.935Z,5.20
2023-02-01T19:08:12.409Z,5.10
2023-02-01T19:11:12.867Z,5.10
2023-02-01T19:14:12.687Z,5.10
2023-02-01T19:17:11.136Z,5.00
2023-02-01T19:20:10.551Z,5.00
2023-02-01T19:23:10.657Z,5.00
2023-02-01T19:26:09.967Z,4.94
2023-02-01T19:29:09.671Z,4.90
2023-02-01T19:32:09.866Z,4.80
2023-02-01T19:35:09.310Z,4.70
2023-02-01T19:38:08.509Z,4.70
2023-02-01T19:41:07.470Z,4.60
2023-02-01T19:44:06.916Z,4.60
2023-02-01T19:47:05.078Z,4.60
2023-02-01T19:50:06.932Z,4.60
2023-02-01T19:53:04.922Z,4.60
2023-02-01T19:56:03.557Z,4.60
2023-02-01T19:59:03.326Z,4.60
2023-02-01T20:02:01.658Z,4.70
2023-02-01T20:04:59.267Z,4.70
2023-02-01T20:07:57.609Z,4.80
2023-02-01T20:10:58.360Z,4.82
2023-02-01T20:13:57.344Z,4.90
2023-02-01T20:16:57.462Z,4.90
2023-02-01T20:19:56.567Z,5.00
2023-02-01T20:22:55.770Z,5.00
2023-02-01T20:25:56.393Z,5.08
2023-02-01T20:28:56.646Z,5.10
2023-02-01T20:31:54.851Z,5.10
2023-02-01T20:34:54.979Z,5.10
2023-02-01T20:37:53.769Z,5.10
2023-02-01T20:40:52.944Z,5.10
2023-02-01T20:43:52.557Z,5.10
2023-02-01T20:46:51.368Z,5.10
2023-02-01T20:49:50.271Z,5.06
2023-02-01T20:52:47.798Z,5.00
2023-02-01T20:55:46.558Z,5.00
2023-02-01T20:58:44.674Z,5.06
2023-02-01T21:01:53.911Z,5.08
2023-02-01T21:04:53.263Z,5.06
2023-02-01T21:07:51.402Z,5.08
2023-02-01T21:10:49.180Z,5.10
2023-02-01T21:13:54.024Z,5.10
2023-02-01T21:16:52.407Z,5.10
2023-02-01T21:19:50.257Z,5.20
2023-02-01T21:22:48.141Z,5.20
2023-02-01T21:25:45.586Z,5.20
2023-02-01T21:28:43.787Z,5.30
2023-02-01T21:31:41.457Z,5.30
2023-02-01T21:34:39.058Z,5.30
2023-02-01T21:37:38.663Z,5.30
2023-02-01T21:40:36.129Z,5.40
2023-02-01T21:43:33.837Z,5.40
2023-02-01T21:46:31.282Z,5.40
2023-02-01T21:49:29.476Z,5.46
2023-02-01T21:52:28.030Z,5.50
2023-02-01T21:55:25.819Z,5.50
2023-02-01T21:58:23.807Z,5.40
2023-02-01T22:01:21.361Z,5.40
2023-02-01T22:04:19.137Z,5.30
2023-02-01T22:07:16.714Z,5.30
2023-02-01T22:10:14.449Z,5.24
2023-02-01T22:13:12.228Z,5.20
2023-02-01T22:16:09.764Z,5.20
2023-02-01T22:19:07.551Z,5.20
2023-02-01T22:22:04.982Z,5.10
2023-02-01T22:25:03.121Z,5.10
2023-02-01T22:28:31.917Z,5.10
2023-02-01T22:31:18.396Z,5.10
2023-02-01T22:34:16.250Z,5.14
2023-02-01T22:37:13.676Z,5.10
2023-02-01T22:40:11.502Z,5.10
2023-02-01T22:43:08.935Z,5.10
2023-02-01T22:46:06.723Z,5.10
2023-02-01T22:49:04.177Z,5.10
2023-02-01T22:52:02.141Z,5.12
2023-02-01T22:54:59.589Z,5.18
2023-02-01T22:57:57.355Z,5.20
2023-02-01T23:00:55.232Z,5.20
2023-02-01T23:03:52.677Z,5.20
2023-02-01T23:06:50.450Z,5.20
2023-02-01T23:09:48.044Z,5.20
2023-02-01T23:12:45.814Z,5.20
2023-02-01T23:15:43.321Z,5.20
2023-02-01T23:18:41.026Z,5.10
2023-02-01T23:21:38.480Z,5.00
2023-02-01T23:24:36.244Z,5.00
2023-02-01T23:27:33.682Z,4.90
2023-02-01T23:30:31.457Z,4.90
2023-02-01T23:33:29.084Z,4.90
2023-02-01T23:36:26.560Z,4.80
2023-02-01T23:39:24.325Z,4.80
2023-02-01T23:42:21.757Z,4.80
2023-02-01T23:45:19.565Z,4.80
2023-02-01T23:48:17.008Z,4.70
2023-02-01T23:51:14.801Z,4.70
2023-02-01T23:54:12.569Z,4.60
2023-02-01T23:57:10.018Z,4.50
